sensor_id;sensor_type;location;lat;lon;timestamp;pressure;altitude;pressure_sealevel;temperature;humidity
34586;BME280;20816;50.950;11.108;2023-04-25T00:01:50;97597.44;;;7.11;94.30
34586;BME280;20816;50.950;11.108;2023-04-25T00:04:17;97606.72;;;7.22;92.61
34586;BME280;20816;50.950;11.108;2023-04-25T00:06:44;97607.53;;;7.26;92.83
34586;BME280;20816;50.950;11.108;2023-04-25T00:09:11;97604.72;;;7.32;92.62
34586;BME280;20816;50.950;11.108;2023-04-25T00:11:38;97606.78;;;7.21;92.70
34586;BME280;20816;50.950;11.108;2023-04-25T00:14:04;97604.00;;;7.27;93.19
34586;BME280;20816;50.950;11.108;2023-04-25T00:16:33;97606.00;;;7.16;93.71
34586;BME280;20816;50.950;11.108;2023-04-25T00:19:01;97607.66;;;7.20;94.08
34586;BME280;20816;50.950;11.108;2023-04-25T00:21:30;97605.91;;;7.20;94.58
34586;BME280;20816;50.950;11.108;2023-04-25T00:23:57;97616.53;;;7.13;94.88
34586;BME280;20816;50.950;11.108;2023-04-25T00:26:24;97606.84;;;7.18;94.52
34586;BME280;20816;50.950;11.108;2023-04-25T00:28:51;97613.84;;;7.17;95.22
34586;BME280;20816;50.950;11.108;2023-04-25T00:31:18;97613.13;;;7.11;95.82
34586;BME280;20816;50.950;11.108;2023-04-25T00:33:45;97621.84;;;7.10;95.69
34586;BME280;20816;50.950;11.108;2023-04-25T00:36:11;97602.53;;;7.15;94.92
34586;BME280;20816;50.950;11.108;2023-04-25T00:38:38;97603.72;;;7.03;95.04
34586;BME280;20816;50.950;11.108;2023-04-25T00:41:06;97600.19;;;7.05;95.60
34586;BME280;20816;50.950;11.108;2023-04-25T00:43:33;97602.09;;;6.98;95.56
34586;BME280;20816;50.950;11.108;2023-04-25T00:46:02;97603.94;;;6.94;96.13
34586;BME280;20816;50.950;11.108;2023-04-25T00:48:29;97603.78;;;7.00;95.77
34586;BME280;20816;50.950;11.108;2023-04-25T00:50:58;97607.25;;;7.01;95.70
34586;BME280;20816;50.950;11.108;2023-04-25T00:53:26;97608.16;;;6.98;95.63
34586;BME280;20816;50.950;11.108;2023-04-25T00:55:53;97606.31;;;7.03;95.43
34586;BME280;20816;50.950;11.108;2023-04-25T00:58:21;97610.06;;;6.93;95.04
34586;BME280;20816;50.950;11.108;2023-04-25T01:00:50;97610.06;;;6.93;94.85
34586;BME280;20816;50.950;11.108;2023-04-25T01:03:18;97606.75;;;6.85;95.57
34586;BME280;20816;50.950;11.108;2023-04-25T01:05:48;97606.63;;;6.90;95.49
34586;BME280;20816;50.950;11.108;2023-04-25T01:08:16;97600.63;;;6.86;94.70
34586;BME280;20816;50.950;11.108;2023-04-25T01:10:43;97602.53;;;6.80;95.43
34586;BME280;20816;50.950;11.108;2023-04-25T01:13:09;97598.25;;;6.75;95.58
34586;BME280;20816;50.950;11.108;2023-04-25T01:15:36;97600.00;;;6.75;95.60
34586;BME280;20816;50.950;11.108;2023-04-25T01:18:05;97600.16;;;6.69;96.37
34586;BME280;20816;50.950;11.108;2023-04-25T01:20:33;97599.31;;;6.68;95.95
34586;BME280;20816;50.950;11.108;2023-04-25T01:23:00;97597.72;;;6.61;96.22
34586;BME280;20816;50.950;11.108;2023-04-25T01:25:29;97602.28;;;6.52;97.19
34586;BME280;20816;50.950;11.108;2023-04-25T01:27:57;97604.13;;;6.46;97.55
34586;BME280;20816;50.950;11.108;2023-04-25T01:30:26;97605.91;;;6.44;97.27
34586;BME280;20816;50.950;11.108;2023-04-25T01:32:56;97600.81;;;6.38;97.65
34586;BME280;20816;50.950;11.108;2023-04-25T01:35:23;97607.81;;;6.38;97.87
34586;BME280;20816;50.950;11.108;2023-04-25T01:37:51;97602.63;;;6.36;97.86
34586;BME280;20816;50.950;11.108;2023-04-25T01:40:21;97600.94;;;6.32;97.89
34586;BME280;20816;50.950;11.108;2023-04-25T01:42:48;97597.44;;;6.33;98.12
34586;BME280;20816;50.950;11.108;2023-04-25T01:45:15;97601.84;;;6.31;98.68
34586;BME280;20816;50.950;11.108;2023-04-25T01:47:42;97600.94;;;6.32;98.38
34586;BME280;20816;50.950;11.108;2023-04-25T01:50:10;97602.75;;;6.30;98.36
34586;BME280;20816;50.950;11.108;2023-04-25T01:52:38;97606.94;;;6.37;97.86
34586;BME280;20816;50.950;11.108;2023-04-25T01:55:05;97600.91;;;6.35;97.84
34586;BME280;20816;50.950;11.108;2023-04-25T01:57:32;97602.47;;;6.42;97.46
34586;BME280;20816;50.950;11.108;2023-04-25T02:00:01;97600.91;;;6.35;97.77
34586;BME280;20816;50.950;11.108;2023-04-25T02:02:28;97605.16;;;6.39;97.36
34586;BME280;20816;50.950;11.108;2023-04-25T02:04:54;97603.47;;;6.37;97.44
34586;BME280;20816;50.950;11.108;2023-04-25T02:07:22;97609.63;;;6.33;97.28
34586;BME280;20816;50.950;11.108;2023-04-25T02:09:49;97605.28;;;6.33;97.81
34586;BME280;20816;50.950;11.108;2023-04-25T02:12:16;97607.81;;;6.38;97.12
34586;BME280;20816;50.950;11.108;2023-04-25T02:14:43;97612.91;;;6.42;97.16
34586;BME280;20816;50.950;11.108;2023-04-25T02:17:09;97605.91;;;6.44;96.89
34586;BME280;20816;50.950;11.108;2023-04-25T02:19:36;97608.44;;;6.47;96.46
34586;BME280;20816;50.950;11.108;2023-04-25T02:22:03;97605.84;;;6.47;96.43
34586;BME280;20816;50.950;11.108;2023-04-25T02:24:30;97606.69;;;6.48;96.35
34586;BME280;20816;50.950;11.108;2023-04-25T02:26:58;97618.19;;;6.39;96.85
34586;BME280;20816;50.950;11.108;2023-04-25T02:29:24;97613.84;;;6.40;96.36
34586;BME280;20816;50.950;11.108;2023-04-25T02:31:51;97607.84;;;6.36;96.68
34586;BME280;20816;50.950;11.108;2023-04-25T02:34:18;97613.94;;;6.35;96.65
34586;BME280;20816;50.950;11.108;2023-04-25T02:36:44;97610.34;;;6.41;96.68
34586;BME280;20816;50.950;11.108;2023-04-25T02:39:11;97611.00;;;6.51;96.03
34586;BME280;20816;50.950;11.108;2023-04-25T02:41:38;97602.28;;;6.52;96.17
34586;BME280;20816;50.950;11.108;2023-04-25T02:44:04;97604.06;;;6.50;96.35
34586;BME280;20816;50.950;11.108;2023-04-25T02:46:31;97604.88;;;6.53;96.62
34586;BME280;20816;50.950;11.108;2023-04-25T02:49:03;97607.50;;;6.52;96.39
34586;BME280;20816;50.950;11.108;2023-04-25T02:51:30;97603.16;;;6.52;96.15
34586;BME280;20816;50.950;11.108;2023-04-25T02:53:56;97603.03;;;6.57;95.59
34586;BME280;20816;50.950;11.108;2023-04-25T02:56:23;97602.00;;;6.64;96.06
34586;BME280;20816;50.950;11.108;2023-04-25T02:58:53;97602.25;;;6.53;96.48
34586;BME280;20816;50.950;11.108;2023-04-25T03:01:20;97605.84;;;6.47;96.48
34586;BME280;20816;50.950;11.108;2023-04-25T03:03:47;97606.81;;;6.42;96.39
34586;BME280;20816;50.950;11.108;2023-04-25T03:06:14;97606.97;;;6.34;96.17
34586;BME280;20816;50.950;11.108;2023-04-25T03:08:42;97608.91;;;6.26;96.76
34586;BME280;20816;50.950;11.108;2023-04-25T03:11:09;97605.56;;;6.20;97.65
34586;BME280;20816;50.950;11.108;2023-04-25T03:13:36;97606.44;;;6.20;97.91
34586;BME280;20816;50.950;11.108;2023-04-25T03:16:03;97609.78;;;6.25;96.80
34586;BME280;20816;50.950;11.108;2023-04-25T03:18:30;97605.53;;;6.21;97.25
34586;BME280;20816;50.950;11.108;2023-04-25T03:20:57;97600.19;;;6.27;96.67
34586;BME280;20816;50.950;11.108;2023-04-25T03:23:24;97603.81;;;6.20;97.18
34586;BME280;20816;50.950;11.108;2023-04-25T03:25:50;97602.19;;;6.14;97.04
34586;BME280;20816;50.950;11.108;2023-04-25T03:28:17;97603.16;;;6.09;96.97
34586;BME280;20816;50.950;11.108;2023-04-25T03:30:44;97612.00;;;6.02;97.39
34586;BME280;20816;50.950;11.108;2023-04-25T03:33:11;97600.03;;;5.92;97.59
34586;BME280;20816;50.950;11.108;2023-04-25T03:35:37;97609.72;;;5.83;97.89
34586;BME280;20816;50.950;11.108;2023-04-25T03:38:04;97605.69;;;5.67;98.39
34586;BME280;20816;50.950;11.108;2023-04-25T03:40:31;97610.13;;;5.62;99.69
34586;BME280;20816;50.950;11.108;2023-04-25T03:42:57;97610.25;;;5.56;99.38
34586;BME280;20816;50.950;11.108;2023-04-25T03:45:24;97612.88;;;5.53;100.00
34586;BME280;20816;50.950;11.108;2023-04-25T03:47:51;97618.09;;;5.53;99.65
34586;BME280;20816;50.950;11.108;2023-04-25T03:50:18;97612.09;;;5.49;99.87
34586;BME280;20816;50.950;11.108;2023-04-25T03:52:44;97621.72;;;5.46;100.00
34586;BME280;20816;50.950;11.108;2023-04-25T03:55:11;97621.75;;;5.43;100.00
34586;BME280;20816;50.950;11.108;2023-04-25T03:57:38;97620.03;;;5.42;100.00
34586;BME280;20816;50.950;11.108;2023-04-25T04:00:05;97615.72;;;5.41;100.00
34586;BME280;20816;50.950;11.108;2023-04-25T04:02:32;97606.13;;;5.43;100.00
34586;BME280;20816;50.950;11.108;2023-04-25T04:05:01;97616.44;;;5.49;100.00
34586;BME280;20816;50.950;11.108;2023-04-25T04:07:29;97622.53;;;5.48;100.00
34586;BME280;20816;50.950;11.108;2023-04-25T04:09:56;97619.16;;;5.43;100.00
34586;BME280;20816;50.950;11.108;2023-04-25T04:12:22;97624.38;;;5.41;100.00
34586;BME280;20816;50.950;11.108;2023-04-25T04:14:49;97616.50;;;5.46;100.00
34586;BME280;20816;50.950;11.108;2023-04-25T04:17:16;97618.09;;;5.53;100.00
34586;BME280;20816;50.950;11.108;2023-04-25T04:19:43;97621.66;;;5.49;100.00
34586;BME280;20816;50.950;11.108;2023-04-25T04:22:09;97623.38;;;5.50;100.00
34586;BME280;20816;50.950;11.108;2023-04-25T04:24:36;97615.56;;;5.50;100.00
34586;BME280;20816;50.950;11.108;2023-04-25T04:27:03;97621.66;;;5.49;100.00
34586;BME280;20816;50.950;11.108;2023-04-25T04:29:30;97624.25;;;5.49;100.00
34586;BME280;20816;50.950;11.108;2023-04-25T04:31:57;97621.59;;;5.52;100.00
34586;BME280;20816;50.950;11.108;2023-04-25T04:34:24;97615.38;;;5.59;100.00
34586;BME280;20816;50.950;11.108;2023-04-25T04:36:52;97617.78;;;5.71;100.00
34586;BME280;20816;50.950;11.108;2023-04-25T04:39:18;97621.19;;;5.75;100.00
34586;BME280;20816;50.950;11.108;2023-04-25T04:41:45;97622.75;;;5.83;100.00
34586;BME280;20816;50.950;11.108;2023-04-25T04:44:12;97619.19;;;5.90;100.00
34586;BME280;20816;50.950;11.108;2023-04-25T04:46:41;97629.50;;;5.97;99.70
34586;BME280;20816;50.950;11.108;2023-04-25T04:49:11;97622.44;;;6.02;99.75
34586;BME280;20816;50.950;11.108;2023-04-25T04:51:39;97622.28;;;6.11;98.59
34586;BME280;20816;50.950;11.108;2023-04-25T04:54:06;97627.22;;;6.23;98.42
34586;BME280;20816;50.950;11.108;2023-04-25T04:56:33;97626.09;;;6.35;97.66
34586;BME280;20816;50.950;11.108;2023-04-25T04:59:00;97629.38;;;6.46;96.82
34586;BME280;20816;50.950;11.108;2023-04-25T05:01:28;97635.25;;;6.56;94.67
34586;BME280;20816;50.950;11.108;2023-04-25T05:03:56;97641.22;;;6.62;94.17
34586;BME280;20816;50.950;11.108;2023-04-25T05:06:28;97639.13;;;6.78;92.98
34586;BME280;20816;50.950;11.108;2023-04-25T05:08:58;97636.94;;;6.97;92.68
34586;BME280;20816;50.950;11.108;2023-04-25T05:11:26;97635.59;;;7.18;91.50
34586;BME280;20816;50.950;11.108;2023-04-25T05:13:53;97653.84;;;7.19;90.46
34586;BME280;20816;50.950;11.108;2023-04-25T05:16:20;97654.13;;;7.44;89.68
34586;BME280;20816;50.950;11.108;2023-04-25T05:18:47;97647.69;;;7.57;88.56
34586;BME280;20816;50.950;11.108;2023-04-25T05:21:14;97643.13;;;7.66;87.33
34586;BME280;20816;50.950;11.108;2023-04-25T05:23:40;97654.66;;;7.91;86.76
34586;BME280;20816;50.950;11.108;2023-04-25T05:26:07;97642.78;;;7.78;87.00
34586;BME280;20816;50.950;11.108;2023-04-25T05:28:40;97644.59;;;7.76;87.43
34586;BME280;20816;50.950;11.108;2023-04-25T05:31:10;97645.56;;;7.72;87.53
34586;BME280;20816;50.950;11.108;2023-04-25T05:33:36;97647.13;;;7.79;87.42
34586;BME280;20816;50.950;11.108;2023-04-25T05:36:03;97663.63;;;7.81;87.43
34586;BME280;20816;50.950;11.108;2023-04-25T05:38:30;97659.81;;;7.94;86.44
34586;BME280;20816;50.950;11.108;2023-04-25T05:41:00;97663.31;;;7.93;86.07
34586;BME280;20816;50.950;11.108;2023-04-25T05:43:26;97659.72;;;7.63;86.38
34586;BME280;20816;50.950;11.108;2023-04-25T05:45:53;97660.53;;;7.65;86.63
34586;BME280;20816;50.950;11.108;2023-04-25T05:48:20;97669.00;;;7.41;88.16
34586;BME280;20816;50.950;11.108;2023-04-25T05:50:46;97665.53;;;7.40;88.54
34586;BME280;20816;50.950;11.108;2023-04-25T05:53:13;97665.44;;;7.79;87.77
34586;BME280;20816;50.950;11.108;2023-04-25T05:55:40;97663.16;;;8.32;85.50
34586;BME280;20816;50.950;11.108;2023-04-25T05:58:07;97669.34;;;8.90;83.44
34586;BME280;20816;50.950;11.108;2023-04-25T06:00:33;97677.84;;;8.98;81.25
34586;BME280;20816;50.950;11.108;2023-04-25T06:03:00;97672.03;;;9.16;81.70
34586;BME280;20816;50.950;11.108;2023-04-25T06:05:28;97680.06;;;9.10;81.07
34586;BME280;20816;50.950;11.108;2023-04-25T06:07:55;97678.13;;;8.89;81.50
34586;BME280;20816;50.950;11.108;2023-04-25T06:10:22;97676.94;;;8.40;83.43
34586;BME280;20816;50.950;11.108;2023-04-25T06:12:49;97674.94;;;8.78;83.72
34586;BME280;20816;50.950;11.108;2023-04-25T06:15:15;97667.94;;;9.08;82.54
34586;BME280;20816;50.950;11.108;2023-04-25T06:17:54;97678.75;;;9.25;81.83
34586;BME280;20816;50.950;11.108;2023-04-25T06:20:21;97684.47;;;9.38;81.90
34586;BME280;20816;50.950;11.108;2023-04-25T06:22:50;97684.41;;;9.11;80.55
34586;BME280;20816;50.950;11.108;2023-04-25T06:25:18;97675.16;;;8.99;82.16
34586;BME280;20816;50.950;11.108;2023-04-25T06:27:45;97685.88;;;8.92;82.62
34586;BME280;20816;50.950;11.108;2023-04-25T06:30:11;97688.00;;;9.09;82.24
34586;BME280;20816;50.950;11.108;2023-04-25T06:32:38;97691.19;;;8.59;82.79
34586;BME280;20816;50.950;11.108;2023-04-25T06:35:06;97681.84;;;8.51;83.53
34586;BME280;20816;50.950;11.108;2023-04-25T06:37:32;97679.44;;;8.43;83.24
34586;BME280;20816;50.950;11.108;2023-04-25T06:39:59;97684.59;;;8.46;83.02
34586;BME280;20816;50.950;11.108;2023-04-25T06:42:26;97692.53;;;8.10;84.55
34586;BME280;20816;50.950;11.108;2023-04-25T06:44:52;97697.34;;;8.26;84.78
34586;BME280;20816;50.950;11.108;2023-04-25T06:47:19;97685.13;;;8.26;84.75
34586;BME280;20816;50.950;11.108;2023-04-25T06:49:46;97694.16;;;8.14;84.82
34586;BME280;20816;50.950;11.108;2023-04-25T06:52:12;97703.00;;;8.10;85.40
34586;BME280;20816;50.950;11.108;2023-04-25T06:54:39;97708.91;;;7.84;86.53
34586;BME280;20816;50.950;11.108;2023-04-25T06:57:06;97715.59;;;7.95;87.12
34586;BME280;20816;50.950;11.108;2023-04-25T06:59:32;97717.41;;;7.58;87.83
34586;BME280;20816;50.950;11.108;2023-04-25T07:01:59;97712.94;;;7.62;88.78
34586;BME280;20816;50.950;11.108;2023-04-25T07:04:26;97717.91;;;7.73;88.25
34586;BME280;20816;50.950;11.108;2023-04-25T07:06:53;97716.53;;;7.58;88.94
34586;BME280;20816;50.950;11.108;2023-04-25T07:09:21;97716.41;;;7.63;88.15
34586;BME280;20816;50.950;11.108;2023-04-25T07:11:48;97723.97;;;7.73;89.37
34586;BME280;20816;50.950;11.108;2023-04-25T07:14:15;97725.63;;;7.77;89.37
34586;BME280;20816;50.950;11.108;2023-04-25T07:16:41;97731.31;;;7.59;89.52
34586;BME280;20816;50.950;11.108;2023-04-25T07:19:08;97725.38;;;7.52;89.72
34586;BME280;20816;50.950;11.108;2023-04-25T07:21:35;97729.78;;;7.50;89.50
34586;BME280;20816;50.950;11.108;2023-04-25T07:24:02;97732.47;;;7.47;90.61
34586;BME280;20816;50.950;11.108;2023-04-25T07:26:29;97732.19;;;7.59;89.70
34586;BME280;20816;50.950;11.108;2023-04-25T07:28:56;97733.09;;;7.58;89.78
34586;BME280;20816;50.950;11.108;2023-04-25T07:31:23;97732.47;;;7.47;89.37
34586;BME280;20816;50.950;11.108;2023-04-25T07:33:49;97731.59;;;7.47;90.09
34586;BME280;20816;50.950;11.108;2023-04-25T07:36:16;97731.41;;;7.54;89.67
34586;BME280;20816;50.950;11.108;2023-04-25T07:38:43;97737.41;;;7.59;90.39
34586;BME280;20816;50.950;11.108;2023-04-25T07:41:10;97737.47;;;7.56;89.21
34586;BME280;20816;50.950;11.108;2023-04-25T07:43:37;97745.13;;;7.64;89.87
34586;BME280;20816;50.950;11.108;2023-04-25T07:46:03;97742.47;;;7.67;89.41
34586;BME280;20816;50.950;11.108;2023-04-25T07:48:30;97741.69;;;7.62;88.06
34586;BME280;20816;50.950;11.108;2023-04-25T07:50:57;97747.09;;;7.54;89.52
34586;BME280;20816;50.950;11.108;2023-04-25T07:53:24;97752.59;;;7.44;90.53
34586;BME280;20816;50.950;11.108;2023-04-25T07:55:51;97748.50;;;7.32;91.19
34586;BME280;20816;50.950;11.108;2023-04-25T07:58:17;97752.41;;;7.51;90.49
34586;BME280;20816;50.950;11.108;2023-04-25T08:00:48;97758.34;;;7.59;90.26
34586;BME280;20816;50.950;11.108;2023-04-25T08:03:15;97758.38;;;7.58;90.46
34586;BME280;20816;50.950;11.108;2023-04-25T08:05:42;97765.81;;;7.75;90.44
34586;BME280;20816;50.950;11.108;2023-04-25T08:08:09;97765.63;;;7.82;89.36
34586;BME280;20816;50.950;11.108;2023-04-25T08:10:36;97766.06;;;7.64;89.38
34586;BME280;20816;50.950;11.108;2023-04-25T08:13:03;97777.59;;;7.55;90.04
34586;BME280;20816;50.950;11.108;2023-04-25T08:15:29;97776.09;;;7.45;90.71
34586;BME280;20816;50.950;11.108;2023-04-25T08:17:56;97778.06;;;7.36;91.32
34586;BME280;20816;50.950;11.108;2023-04-25T08:20:23;97783.03;;;7.46;91.59
34586;BME280;20816;50.950;11.108;2023-04-25T08:22:50;97793.78;;;7.34;91.06
34586;BME280;20816;50.950;11.108;2023-04-25T08:25:16;97797.28;;;7.31;91.88
34586;BME280;20816;50.950;11.108;2023-04-25T08:27:43;97791.97;;;7.36;91.63
34586;BME280;20816;50.950;11.108;2023-04-25T08:30:10;97793.97;;;7.25;92.38
34586;BME280;20816;50.950;11.108;2023-04-25T08:32:37;97804.69;;;7.13;94.05
34586;BME280;20816;50.950;11.108;2023-04-25T08:35:07;97807.53;;;7.02;96.07
34586;BME280;20816;50.950;11.108;2023-04-25T08:37:34;97806.03;;;6.89;97.00
34586;BME280;20816;50.950;11.108;2023-04-25T08:40:01;97812.19;;;6.86;97.46
34586;BME280;20816;50.950;11.108;2023-04-25T08:42:29;97818.88;;;6.99;96.95
34586;BME280;20816;50.950;11.108;2023-04-25T08:44:58;97823.19;;;7.02;95.87
34586;BME280;20816;50.950;11.108;2023-04-25T08:47:29;97813.09;;;7.27;96.06
34586;BME280;20816;50.950;11.108;2023-04-25T08:49:58;97815.94;;;7.55;95.23
34586;BME280;20816;50.950;11.108;2023-04-25T08:52:28;97819.09;;;7.71;93.38
34586;BME280;20816;50.950;11.108;2023-04-25T08:54:57;97822.78;;;7.98;93.27
34586;BME280;20816;50.950;11.108;2023-04-25T08:57:24;97817.50;;;8.01;94.55
34586;BME280;20816;50.950;11.108;2023-04-25T08:59:51;97833.75;;;8.13;93.16
34586;BME280;20816;50.950;11.108;2023-04-25T09:02:19;97840.34;;;8.30;91.92
34586;BME280;20816;50.950;11.108;2023-04-25T09:04:47;97834.69;;;8.48;91.07
34586;BME280;20816;50.950;11.108;2023-04-25T09:07:15;97835.41;;;8.53;90.11
34586;BME280;20816;50.950;11.108;2023-04-25T09:09:45;97835.41;;;8.86;90.50
34586;BME280;20816;50.950;11.108;2023-04-25T09:12:11;97836.00;;;8.95;89.07
34586;BME280;20816;50.950;11.108;2023-04-25T09:14:38;97833.16;;;9.05;88.63
34586;BME280;20816;50.950;11.108;2023-04-25T09:17:05;97842.72;;;8.75;88.41
34586;BME280;20816;50.950;11.108;2023-04-25T09:19:35;97843.31;;;8.52;89.53
34586;BME280;20816;50.950;11.108;2023-04-25T09:22:07;97848.59;;;8.50;90.92
34586;BME280;20816;50.950;11.108;2023-04-25T09:27:09;97872.34;;;8.42;91.55
34586;BME280;20816;50.950;11.108;2023-04-25T09:29:40;97868.31;;;8.28;90.59
34586;BME280;20816;50.950;11.108;2023-04-25T09:32:22;97881.94;;;8.05;87.92
34586;BME280;20816;50.950;11.108;2023-04-25T09:34:51;97885.63;;;7.96;88.12
34586;BME280;20816;50.950;11.108;2023-04-25T09:37:28;97882.53;;;7.79;88.72
34586;BME280;20816;50.950;11.108;2023-04-25T09:39:57;97887.91;;;7.74;90.10
34586;BME280;20816;50.950;11.108;2023-04-25T09:42:26;97892.25;;;7.74;90.79
34586;BME280;20816;50.950;11.108;2023-04-25T09:44:56;97898.53;;;7.65;91.23
34586;BME280;20816;50.950;11.108;2023-04-25T09:47:24;97900.19;;;7.69;92.78
34586;BME280;20816;50.950;11.108;2023-04-25T09:49:52;97905.88;;;7.88;92.53
34586;BME280;20816;50.950;11.108;2023-04-25T09:52:22;97907.59;;;7.89;92.84
34586;BME280;20816;50.950;11.108;2023-04-25T09:54:51;97902.38;;;7.89;92.73
34586;BME280;20816;50.950;11.108;2023-04-25T09:57:20;97907.34;;;7.61;92.03
34586;BME280;20816;50.950;11.108;2023-04-25T09:59:49;97905.56;;;7.63;93.84
34586;BME280;20816;50.950;11.108;2023-04-25T10:02:18;97912.75;;;7.53;94.80
34586;BME280;20816;50.950;11.108;2023-04-25T10:04:51;97911.25;;;7.42;94.82
34586;BME280;20816;50.950;11.108;2023-04-25T10:07:23;97910.63;;;7.29;94.65
34586;BME280;20816;50.950;11.108;2023-04-25T10:10:03;97917.75;;;7.21;96.02
34586;BME280;20816;50.950;11.108;2023-04-25T10:12:30;97922.34;;;7.08;97.25
34586;BME280;20816;50.950;11.108;2023-04-25T10:14:59;97924.22;;;7.00;97.31
34586;BME280;20816;50.950;11.108;2023-04-25T10:17:27;97923.22;;;7.07;97.51
34586;BME280;20816;50.950;11.108;2023-04-25T10:19:55;97926.78;;;7.05;97.59
34586;BME280;20816;50.950;11.108;2023-04-25T10:22:34;97925.97;;;7.01;96.59
34586;BME280;20816;50.950;11.108;2023-04-25T10:25:02;97924.94;;;7.10;97.23
34586;BME280;20816;50.950;11.108;2023-04-25T10:27:31;97924.97;;;7.07;96.75
34586;BME280;20816;50.950;11.108;2023-04-25T10:30:01;97937.28;;;7.01;96.53
34586;BME280;20816;50.950;11.108;2023-04-25T10:32:31;97946.06;;;6.97;97.00
34586;BME280;20816;50.950;11.108;2023-04-25T10:35:25;97949.72;;;6.87;95.10
34586;BME280;20816;50.950;11.108;2023-04-25T10:38:00;97949.88;;;6.78;94.96
34586;BME280;20816;50.950;11.108;2023-04-25T10:40:29;97954.81;;;6.44;93.48
34586;BME280;20816;50.950;11.108;2023-04-25T10:46:01;97959.06;;;6.50;94.73
34586;BME280;20816;50.950;11.108;2023-04-25T10:48:29;97959.28;;;6.34;93.89
34586;BME280;20816;50.950;11.108;2023-04-25T10:51:09;97964.13;;;6.59;94.28
34586;BME280;20816;50.950;11.108;2023-04-25T10:53:36;97958.63;;;6.77;93.78
34586;BME280;20816;50.950;11.108;2023-04-25T10:56:19;97967.91;;;6.92;95.30
34586;BME280;20816;50.950;11.108;2023-04-25T10:58:48;97959.13;;;6.97;94.20
34586;BME280;20816;50.950;11.108;2023-04-25T11:01:24;97958.03;;;7.11;92.79
34586;BME280;20816;50.950;11.108;2023-04-25T11:03:57;97953.97;;;7.39;92.11
34586;BME280;20816;50.950;11.108;2023-04-25T11:06:51;97949.25;;;7.58;90.05
34586;BME280;20816;50.950;11.108;2023-04-25T11:09:35;97950.50;;;7.82;89.44
34586;BME280;20816;50.950;11.108;2023-04-25T11:12:03;97948.41;;;7.57;87.34
34586;BME280;20816;50.950;11.108;2023-04-25T11:14:29;97942.13;;;8.06;88.13
34586;BME280;20816;50.950;11.108;2023-04-25T11:16:57;97946.97;;;8.60;86.60
34586;BME280;20816;50.950;11.108;2023-04-25T11:19:26;97944.91;;;9.07;83.21
34586;BME280;20816;50.950;11.108;2023-04-25T11:21:58;97937.34;;;9.90;79.85
34586;BME280;20816;50.950;11.108;2023-04-25T11:24:27;97929.53;;;10.16;78.65
34586;BME280;20816;50.950;11.108;2023-04-25T11:26:54;97937.09;;;10.28;75.68
34586;BME280;20816;50.950;11.108;2023-04-25T11:29:23;97928.38;;;9.97;74.60
34586;BME280;20816;50.950;11.108;2023-04-25T11:31:50;97924.22;;;10.19;73.97
34586;BME280;20816;50.950;11.108;2023-04-25T11:34:20;97935.38;;;10.80;73.44
34586;BME280;20816;50.950;11.108;2023-04-25T11:36:47;97936.88;;;11.14;71.74
34586;BME280;20816;50.950;11.108;2023-04-25T11:39:13;97937.72;;;11.14;69.12
34586;BME280;20816;50.950;11.108;2023-04-25T11:41:42;97936.50;;;11.00;67.38
34586;BME280;20816;50.950;11.108;2023-04-25T11:44:11;97933.19;;;10.68;68.81
34586;BME280;20816;50.950;11.108;2023-04-25T11:46:38;97934.84;;;10.44;69.17
34586;BME280;20816;50.950;11.108;2023-04-25T11:49:05;97939.56;;;10.03;70.55
34586;BME280;20816;50.950;11.108;2023-04-25T11:51:45;97937.22;;;10.24;72.44
34586;BME280;20816;50.950;11.108;2023-04-25T11:54:13;97946.69;;;10.29;70.84
34586;BME280;20816;50.950;11.108;2023-04-25T11:56:45;97944.31;;;9.91;71.79
34586;BME280;20816;50.950;11.108;2023-04-25T11:59:13;97944.88;;;10.02;72.81
34586;BME280;20816;50.950;11.108;2023-04-25T12:01:41;97938.31;;;10.15;71.37
34586;BME280;20816;50.950;11.108;2023-04-25T12:06:46;97944.00;;;10.31;71.78
34586;BME280;20816;50.950;11.108;2023-04-25T12:09:17;97938.94;;;10.53;72.70
34586;BME280;20816;50.950;11.108;2023-04-25T12:11:49;97942.44;;;11.30;70.25
34586;BME280;20816;50.950;11.108;2023-04-25T12:14:30;97930.69;;;11.65;67.75
34586;BME280;20816;50.950;11.108;2023-04-25T12:16:59;97947.78;;;11.28;69.28
34586;BME280;20816;50.950;11.108;2023-04-25T12:19:32;97944.41;;;11.73;66.81
34586;BME280;20816;50.950;11.108;2023-04-25T12:22:18;97942.78;;;12.39;65.72
34586;BME280;20816;50.950;11.108;2023-04-25T12:24:46;97940.00;;;12.42;64.70
34586;BME280;20816;50.950;11.108;2023-04-25T12:27:15;97946.78;;;11.32;65.60
34586;BME280;20816;50.950;11.108;2023-04-25T12:29:55;97962.25;;;10.35;67.75
34586;BME280;20816;50.950;11.108;2023-04-25T12:32:22;97964.97;;;10.03;67.53
34586;BME280;20816;50.950;11.108;2023-04-25T12:34:49;97962.50;;;9.67;67.38
34586;BME280;20816;50.950;11.108;2023-04-25T12:37:16;97972.19;;;9.33;66.44
34586;BME280;20816;50.950;11.108;2023-04-25T12:39:43;97972.09;;;9.05;66.72
34586;BME280;20816;50.950;11.108;2023-04-25T12:42:10;97978.94;;;9.09;68.02
34586;BME280;20816;50.950;11.108;2023-04-25T12:44:39;97979.09;;;9.04;65.79
34586;BME280;20816;50.950;11.108;2023-04-25T12:47:07;97984.53;;;8.96;65.25
34586;BME280;20816;50.950;11.108;2023-04-25T12:49:34;97985.72;;;9.17;64.86
34586;BME280;20816;50.950;11.108;2023-04-25T12:52:01;97982.97;;;9.54;65.17
34586;BME280;20816;50.950;11.108;2023-04-25T12:54:28;97970.28;;;10.00;65.20
34586;BME280;20816;50.950;11.108;2023-04-25T12:56:55;97978.38;;;10.23;63.66
34586;BME280;20816;50.950;11.108;2023-04-25T12:59:21;97979.16;;;10.81;63.58
34586;BME280;20816;50.950;11.108;2023-04-25T13:01:48;97977.31;;;10.57;61.28
34586;BME280;20816;50.950;11.108;2023-04-25T13:04:16;97977.44;;;10.54;61.10
34586;BME280;20816;50.950;11.108;2023-04-25T13:06:43;97975.81;;;10.20;60.51
34586;BME280;20816;50.950;11.108;2023-04-25T13:09:10;97974.56;;;10.33;61.53
34586;BME280;20816;50.950;11.108;2023-04-25T13:11:39;97978.09;;;10.32;61.61